Terminal Aerodrome Forecast
Issued by NWS Central Illinois

Current Version | Previous Version | Text Only | Print | Product List | Glossary On
Versions: 1 2 3 4 5 6 7 8 9 10 11 12 13 14 15 16 17 18 19
000
FTUS43 KILX 172323
TAFSPI
TAF
KSPI 172323Z 1800/1824 18006KT P6SM SCT025 OVC050
     FM180200 20007KT P6SM OVC030
     FM180300 22008KT 6SM -DZ BR OVC015
     FM181000 23007KT P6SM OVC020
     FM182000 24012KT P6SM BKN100=

USA.gov is the U.S. government's official web portal to all federal, state and local government web resources and services.